sensor_id;sensor_type;location;lat;lon;timestamp;temperature;humidity
18611;DHT22;9435;52.122;5.502;2024-01-30T00:00:41;7.60;99.90
18611;DHT22;9435;52.122;5.502;2024-01-30T00:03:08;7.70;99.90
18611;DHT22;9435;52.122;5.502;2024-01-30T00:05:35;7.60;99.90
18611;DHT22;9435;52.122;5.502;2024-01-30T00:08:02;7.60;99.90
18611;DHT22;9435;52.122;5.502;2024-01-30T00:10:31;7.50;99.90
18611;DHT22;9435;52.122;5.502;2024-01-30T00:12:58;7.50;99.90
18611;DHT22;9435;52.122;5.502;2024-01-30T00:15:25;7.50;99.90
18611;DHT22;9435;52.122;5.502;2024-01-30T00:17:52;7.60;99.90
18611;DHT22;9435;52.122;5.502;2024-01-30T00:20:20;7.50;99.90
18611;DHT22;9435;52.122;5.502;2024-01-30T00:22:48;7.50;99.90
18611;DHT22;9435;52.122;5.502;2024-01-30T00:25:15;7.50;99.90
18611;DHT22;9435;52.122;5.502;2024-01-30T00:27:44;7.50;99.90
18611;DHT22;9435;52.122;5.502;2024-01-30T00:30:12;7.50;99.90
18611;DHT22;9435;52.122;5.502;2024-01-30T00:32:39;7.50;99.90
18611;DHT22;9435;52.122;5.502;2024-01-30T00:35:06;7.40;99.90
18611;DHT22;9435;52.122;5.502;2024-01-30T00:37:35;7.50;99.90
18611;DHT22;9435;52.122;5.502;2024-01-30T00:40:03;7.40;99.90
18611;DHT22;9435;52.122;5.502;2024-01-30T00:42:31;7.40;99.90
18611;DHT22;9435;52.122;5.502;2024-01-30T00:45:00;7.40;99.90
18611;DHT22;9435;52.122;5.502;2024-01-30T00:47:27;7.30;99.90
18611;DHT22;9435;52.122;5.502;2024-01-30T00:49:54;7.30;99.90
18611;DHT22;9435;52.122;5.502;2024-01-30T00:52:21;7.30;99.90
18611;DHT22;9435;52.122;5.502;2024-01-30T00:54:49;7.30;99.90
18611;DHT22;9435;52.122;5.502;2024-01-30T00:57:16;7.30;99.90
18611;DHT22;9435;52.122;5.502;2024-01-30T00:59:43;7.30;99.90
18611;DHT22;9435;52.122;5.502;2024-01-30T01:02:11;7.40;99.90
18611;DHT22;9435;52.122;5.502;2024-01-30T01:04:39;7.40;99.90
18611;DHT22;9435;52.122;5.502;2024-01-30T01:07:06;7.30;99.90
18611;DHT22;9435;52.122;5.502;2024-01-30T01:09:33;7.30;99.90
18611;DHT22;9435;52.122;5.502;2024-01-30T01:12:01;7.30;99.90
18611;DHT22;9435;52.122;5.502;2024-01-30T01:14:28;7.30;99.90
18611;DHT22;9435;52.122;5.502;2024-01-30T01:16:55;7.30;99.90
18611;DHT22;9435;52.122;5.502;2024-01-30T01:19:26;7.30;99.90
18611;DHT22;9435;52.122;5.502;2024-01-30T01:21:53;7.30;99.90
18611;DHT22;9435;52.122;5.502;2024-01-30T01:24:21;7.30;99.90
18611;DHT22;9435;52.122;5.502;2024-01-30T01:26:48;7.30;99.90
18611;DHT22;9435;52.122;5.502;2024-01-30T01:29:15;7.30;99.90
18611;DHT22;9435;52.122;5.502;2024-01-30T01:31:42;7.20;99.90
18611;DHT22;9435;52.122;5.502;2024-01-30T01:34:10;7.30;99.90
18611;DHT22;9435;52.122;5.502;2024-01-30T01:36:38;7.30;99.90
18611;DHT22;9435;52.122;5.502;2024-01-30T01:39:05;7.30;99.90
18611;DHT22;9435;52.122;5.502;2024-01-30T01:41:33;7.30;99.90
18611;DHT22;9435;52.122;5.502;2024-01-30T01:44:00;7.20;99.90
18611;DHT22;9435;52.122;5.502;2024-01-30T01:46:27;7.30;99.90
18611;DHT22;9435;52.122;5.502;2024-01-30T01:48:56;7.20;99.90
18611;DHT22;9435;52.122;5.502;2024-01-30T01:51:25;7.20;99.90
18611;DHT22;9435;52.122;5.502;2024-01-30T01:53:56;7.20;99.90
18611;DHT22;9435;52.122;5.502;2024-01-30T01:56:23;7.20;99.90
18611;DHT22;9435;52.122;5.502;2024-01-30T01:58:54;7.10;99.90
18611;DHT22;9435;52.122;5.502;2024-01-30T02:01:21;7.10;99.90
18611;DHT22;9435;52.122;5.502;2024-01-30T02:03:50;7.10;99.90
18611;DHT22;9435;52.122;5.502;2024-01-30T02:06:17;7.10;99.90
18611;DHT22;9435;52.122;5.502;2024-01-30T02:08:44;7.10;99.90
18611;DHT22;9435;52.122;5.502;2024-01-30T02:11:13;7.10;99.90
18611;DHT22;9435;52.122;5.502;2024-01-30T02:13:41;7.00;99.90
18611;DHT22;9435;52.122;5.502;2024-01-30T02:16:08;7.00;99.90
18611;DHT22;9435;52.122;5.502;2024-01-30T02:18:36;7.00;99.90
18611;DHT22;9435;52.122;5.502;2024-01-30T02:21:09;7.00;99.90
18611;DHT22;9435;52.122;5.502;2024-01-30T02:23:36;7.00;99.90
18611;DHT22;9435;52.122;5.502;2024-01-30T02:26:04;7.00;99.90
18611;DHT22;9435;52.122;5.502;2024-01-30T02:28:31;7.00;99.90
18611;DHT22;9435;52.122;5.502;2024-01-30T02:30:58;7.00;99.90
18611;DHT22;9435;52.122;5.502;2024-01-30T02:33:25;7.10;99.90
18611;DHT22;9435;52.122;5.502;2024-01-30T02:35:52;7.00;99.90
18611;DHT22;9435;52.122;5.502;2024-01-30T02:38:22;7.00;99.90
18611;DHT22;9435;52.122;5.502;2024-01-30T02:40:49;7.00;99.90
18611;DHT22;9435;52.122;5.502;2024-01-30T02:43:16;7.00;99.90
18611;DHT22;9435;52.122;5.502;2024-01-30T02:45:43;6.90;99.90
18611;DHT22;9435;52.122;5.502;2024-01-30T02:48:11;7.00;99.90
18611;DHT22;9435;52.122;5.502;2024-01-30T02:50:38;6.90;99.90
18611;DHT22;9435;52.122;5.502;2024-01-30T02:53:05;6.90;99.90
18611;DHT22;9435;52.122;5.502;2024-01-30T02:55:33;6.90;99.90
18611;DHT22;9435;52.122;5.502;2024-01-30T02:58:00;6.90;99.90
18611;DHT22;9435;52.122;5.502;2024-01-30T03:00:28;6.90;99.90
18611;DHT22;9435;52.122;5.502;2024-01-30T03:02:55;7.00;99.90
18611;DHT22;9435;52.122;5.502;2024-01-30T03:05:22;7.00;99.90
18611;DHT22;9435;52.122;5.502;2024-01-30T03:07:49;7.00;99.90
18611;DHT22;9435;52.122;5.502;2024-01-30T03:10:16;7.00;99.90
18611;DHT22;9435;52.122;5.502;2024-01-30T03:12:45;7.00;99.90
18611;DHT22;9435;52.122;5.502;2024-01-30T03:15:12;6.90;99.90
18611;DHT22;9435;52.122;5.502;2024-01-30T03:17:39;6.90;99.90
18611;DHT22;9435;52.122;5.502;2024-01-30T03:20:07;6.90;99.90
18611;DHT22;9435;52.122;5.502;2024-01-30T03:22:34;6.90;99.90
18611;DHT22;9435;52.122;5.502;2024-01-30T03:25:02;6.90;99.90
18611;DHT22;9435;52.122;5.502;2024-01-30T03:27:29;7.00;99.90
18611;DHT22;9435;52.122;5.502;2024-01-30T03:29:57;7.00;99.90
18611;DHT22;9435;52.122;5.502;2024-01-30T03:32:24;7.00;99.90
18611;DHT22;9435;52.122;5.502;2024-01-30T03:34:51;7.00;99.90
18611;DHT22;9435;52.122;5.502;2024-01-30T03:37:19;7.00;99.90
18611;DHT22;9435;52.122;5.502;2024-01-30T03:39:46;6.90;99.90
18611;DHT22;9435;52.122;5.502;2024-01-30T03:42:13;6.90;99.90
18611;DHT22;9435;52.122;5.502;2024-01-30T03:44:40;6.80;99.90
18611;DHT22;9435;52.122;5.502;2024-01-30T03:47:08;6.90;99.90
18611;DHT22;9435;52.122;5.502;2024-01-30T03:49:35;6.80;99.90
18611;DHT22;9435;52.122;5.502;2024-01-30T03:52:03;6.80;99.90
18611;DHT22;9435;52.122;5.502;2024-01-30T03:54:30;6.90;99.90
18611;DHT22;9435;52.122;5.502;2024-01-30T03:56:57;6.90;99.90
18611;DHT22;9435;52.122;5.502;2024-01-30T03:59:24;6.90;99.90
18611;DHT22;9435;52.122;5.502;2024-01-30T04:01:51;6.90;99.90
18611;DHT22;9435;52.122;5.502;2024-01-30T04:04:20;7.00;99.90
18611;DHT22;9435;52.122;5.502;2024-01-30T04:06:47;7.00;99.90
18611;DHT22;9435;52.122;5.502;2024-01-30T04:09:14;6.90;99.90
18611;DHT22;9435;52.122;5.502;2024-01-30T04:11:42;6.90;99.90
18611;DHT22;9435;52.122;5.502;2024-01-30T04:14:09;6.90;99.90
18611;DHT22;9435;52.122;5.502;2024-01-30T04:16:36;7.00;99.90
18611;DHT22;9435;52.122;5.502;2024-01-30T04:19:03;7.00;99.90
18611;DHT22;9435;52.122;5.502;2024-01-30T04:21:32;7.00;99.90
18611;DHT22;9435;52.122;5.502;2024-01-30T04:23:59;7.00;99.90
18611;DHT22;9435;52.122;5.502;2024-01-30T04:26:26;7.00;99.90
18611;DHT22;9435;52.122;5.502;2024-01-30T04:28:53;7.00;99.90
18611;DHT22;9435;52.122;5.502;2024-01-30T04:31:20;7.00;99.90
18611;DHT22;9435;52.122;5.502;2024-01-30T04:33:47;7.10;99.90
18611;DHT22;9435;52.122;5.502;2024-01-30T04:36:14;7.10;99.90
18611;DHT22;9435;52.122;5.502;2024-01-30T04:38:43;7.10;99.90
18611;DHT22;9435;52.122;5.502;2024-01-30T04:41:10;7.10;99.90
18611;DHT22;9435;52.122;5.502;2024-01-30T04:43:37;7.20;99.90
18611;DHT22;9435;52.122;5.502;2024-01-30T04:46:04;7.20;99.90
18611;DHT22;9435;52.122;5.502;2024-01-30T04:48:32;7.30;99.90
18611;DHT22;9435;52.122;5.502;2024-01-30T04:50:59;7.40;99.90
18611;DHT22;9435;52.122;5.502;2024-01-30T04:53:29;7.30;99.90
18611;DHT22;9435;52.122;5.502;2024-01-30T04:55:58;7.30;99.90
18611;DHT22;9435;52.122;5.502;2024-01-30T04:58:25;7.30;99.90
18611;DHT22;9435;52.122;5.502;2024-01-30T05:00:52;7.30;99.90
18611;DHT22;9435;52.122;5.502;2024-01-30T05:03:20;7.30;99.90
18611;DHT22;9435;52.122;5.502;2024-01-30T05:05:48;7.30;99.90
18611;DHT22;9435;52.122;5.502;2024-01-30T05:08:16;7.30;99.90
18611;DHT22;9435;52.122;5.502;2024-01-30T05:10:43;7.40;99.90
18611;DHT22;9435;52.122;5.502;2024-01-30T05:13:11;7.40;99.90
18611;DHT22;9435;52.122;5.502;2024-01-30T05:15:39;7.40;99.90
18611;DHT22;9435;52.122;5.502;2024-01-30T05:18:06;7.40;99.90
18611;DHT22;9435;52.122;5.502;2024-01-30T05:20:34;7.50;99.90
18611;DHT22;9435;52.122;5.502;2024-01-30T05:23:01;7.50;99.90
18611;DHT22;9435;52.122;5.502;2024-01-30T05:25:28;7.60;99.90
18611;DHT22;9435;52.122;5.502;2024-01-30T05:27:55;7.70;99.90
18611;DHT22;9435;52.122;5.502;2024-01-30T05:30:23;7.70;99.90
18611;DHT22;9435;52.122;5.502;2024-01-30T05:32:50;7.70;99.90
18611;DHT22;9435;52.122;5.502;2024-01-30T05:35:18;7.70;99.90
18611;DHT22;9435;52.122;5.502;2024-01-30T05:37:47;7.70;99.90
18611;DHT22;9435;52.122;5.502;2024-01-30T05:40:14;7.70;99.90
18611;DHT22;9435;52.122;5.502;2024-01-30T05:42:42;7.70;99.90
18611;DHT22;9435;52.122;5.502;2024-01-30T05:45:09;7.70;99.90
18611;DHT22;9435;52.122;5.502;2024-01-30T05:47:37;7.70;99.90
18611;DHT22;9435;52.122;5.502;2024-01-30T05:50:07;7.70;99.90
18611;DHT22;9435;52.122;5.502;2024-01-30T05:52:34;7.80;99.90
18611;DHT22;9435;52.122;5.502;2024-01-30T05:55:01;7.90;99.90
18611;DHT22;9435;52.122;5.502;2024-01-30T05:57:29;7.80;99.90
18611;DHT22;9435;52.122;5.502;2024-01-30T05:59:56;7.90;99.90
18611;DHT22;9435;52.122;5.502;2024-01-30T06:02:23;7.80;99.90
18611;DHT22;9435;52.122;5.502;2024-01-30T06:04:52;7.90;99.90
18611;DHT22;9435;52.122;5.502;2024-01-30T06:07:19;7.90;99.90
18611;DHT22;9435;52.122;5.502;2024-01-30T06:09:46;7.90;99.90
18611;DHT22;9435;52.122;5.502;2024-01-30T06:12:13;7.90;99.90
18611;DHT22;9435;52.122;5.502;2024-01-30T06:14:40;7.90;99.90
18611;DHT22;9435;52.122;5.502;2024-01-30T06:17:08;7.90;99.90
18611;DHT22;9435;52.122;5.502;2024-01-30T06:19:35;7.90;99.90
18611;DHT22;9435;52.122;5.502;2024-01-30T06:22:06;7.90;99.90
18611;DHT22;9435;52.122;5.502;2024-01-30T06:24:34;8.00;99.90
18611;DHT22;9435;52.122;5.502;2024-01-30T06:27:04;8.00;99.90
18611;DHT22;9435;52.122;5.502;2024-01-30T06:29:31;8.00;99.90
18611;DHT22;9435;52.122;5.502;2024-01-30T06:31:59;8.10;99.90
18611;DHT22;9435;52.122;5.502;2024-01-30T06:34:26;8.00;99.90
18611;DHT22;9435;52.122;5.502;2024-01-30T06:36:53;8.10;99.90
18611;DHT22;9435;52.122;5.502;2024-01-30T06:39:21;8.10;99.90
18611;DHT22;9435;52.122;5.502;2024-01-30T06:41:48;8.10;99.90
18611;DHT22;9435;52.122;5.502;2024-01-30T06:44:16;8.20;99.90
18611;DHT22;9435;52.122;5.502;2024-01-30T06:46:43;8.20;99.90
18611;DHT22;9435;52.122;5.502;2024-01-30T06:49:10;8.20;99.90
18611;DHT22;9435;52.122;5.502;2024-01-30T06:51:37;8.30;99.90
18611;DHT22;9435;52.122;5.502;2024-01-30T06:54:05;8.30;99.90
18611;DHT22;9435;52.122;5.502;2024-01-30T06:56:33;8.40;99.90
18611;DHT22;9435;52.122;5.502;2024-01-30T06:59:01;8.40;99.90
18611;DHT22;9435;52.122;5.502;2024-01-30T07:01:29;8.40;99.90
18611;DHT22;9435;52.122;5.502;2024-01-30T07:03:56;8.40;99.90
18611;DHT22;9435;52.122;5.502;2024-01-30T07:06:23;8.40;99.90
18611;DHT22;9435;52.122;5.502;2024-01-30T07:08:51;8.40;99.90
18611;DHT22;9435;52.122;5.502;2024-01-30T07:11:19;8.50;99.90
18611;DHT22;9435;52.122;5.502;2024-01-30T07:13:49;8.50;99.90
18611;DHT22;9435;52.122;5.502;2024-01-30T07:16:17;8.50;99.90
18611;DHT22;9435;52.122;5.502;2024-01-30T07:18:44;8.50;99.90
18611;DHT22;9435;52.122;5.502;2024-01-30T07:21:12;8.50;99.90
18611;DHT22;9435;52.122;5.502;2024-01-30T07:23:40;8.50;99.90
18611;DHT22;9435;52.122;5.502;2024-01-30T07:26:07;8.50;99.90
18611;DHT22;9435;52.122;5.502;2024-01-30T07:28:35;8.60;99.90
18611;DHT22;9435;52.122;5.502;2024-01-30T07:31:03;8.60;99.90
18611;DHT22;9435;52.122;5.502;2024-01-30T07:33:32;8.60;99.90
18611;DHT22;9435;52.122;5.502;2024-01-30T07:35:59;8.60;99.90
18611;DHT22;9435;52.122;5.502;2024-01-30T07:38:26;8.60;99.90
18611;DHT22;9435;52.122;5.502;2024-01-30T07:40:53;8.60;99.90
18611;DHT22;9435;52.122;5.502;2024-01-30T07:43:20;8.70;99.90
18611;DHT22;9435;52.122;5.502;2024-01-30T07:45:48;8.60;99.90
18611;DHT22;9435;52.122;5.502;2024-01-30T07:48:16;8.60;99.90
18611;DHT22;9435;52.122;5.502;2024-01-30T07:50:43;8.70;99.90
18611;DHT22;9435;52.122;5.502;2024-01-30T07:53:11;8.70;99.90
18611;DHT22;9435;52.122;5.502;2024-01-30T07:55:38;8.70;99.90
18611;DHT22;9435;52.122;5.502;2024-01-30T07:58:05;8.70;99.90
18611;DHT22;9435;52.122;5.502;2024-01-30T08:00:32;8.80;99.90
18611;DHT22;9435;52.122;5.502;2024-01-30T08:02:59;8.80;99.90
18611;DHT22;9435;52.122;5.502;2024-01-30T08:05:28;8.80;99.90
18611;DHT22;9435;52.122;5.502;2024-01-30T08:07:55;8.80;99.90
18611;DHT22;9435;52.122;5.502;2024-01-30T08:10:22;8.90;99.90
18611;DHT22;9435;52.122;5.502;2024-01-30T08:12:49;8.90;99.90
18611;DHT22;9435;52.122;5.502;2024-01-30T08:15:16;8.90;99.90
18611;DHT22;9435;52.122;5.502;2024-01-30T08:17:43;9.00;99.90
18611;DHT22;9435;52.122;5.502;2024-01-30T08:20:11;9.00;99.90
18611;DHT22;9435;52.122;5.502;2024-01-30T08:22:40;9.00;99.90
18611;DHT22;9435;52.122;5.502;2024-01-30T08:25:08;9.00;99.90
18611;DHT22;9435;52.122;5.502;2024-01-30T08:27:35;9.10;99.90
18611;DHT22;9435;52.122;5.502;2024-01-30T08:30:05;9.10;99.90
18611;DHT22;9435;52.122;5.502;2024-01-30T08:32:32;9.10;99.90
18611;DHT22;9435;52.122;5.502;2024-01-30T08:35:00;9.20;99.90
18611;DHT22;9435;52.122;5.502;2024-01-30T08:37:29;9.20;99.90
18611;DHT22;9435;52.122;5.502;2024-01-30T08:39:57;9.20;99.90
18611;DHT22;9435;52.122;5.502;2024-01-30T08:42:25;9.20;99.90
18611;DHT22;9435;52.122;5.502;2024-01-30T08:44:52;9.20;99.90
18611;DHT22;9435;52.122;5.502;2024-01-30T08:47:21;9.20;99.90
18611;DHT22;9435;52.122;5.502;2024-01-30T08:49:48;9.30;99.90
18611;DHT22;9435;52.122;5.502;2024-01-30T08:52:15;9.30;99.90
18611;DHT22;9435;52.122;5.502;2024-01-30T08:54:43;9.30;99.90
18611;DHT22;9435;52.122;5.502;2024-01-30T08:57:11;9.30;99.90
18611;DHT22;9435;52.122;5.502;2024-01-30T08:59:38;9.30;99.90
18611;DHT22;9435;52.122;5.502;2024-01-30T09:02:05;9.30;99.90
18611;DHT22;9435;52.122;5.502;2024-01-30T09:04:32;9.40;99.90
18611;DHT22;9435;52.122;5.502;2024-01-30T09:06:59;9.50;99.90
18611;DHT22;9435;52.122;5.502;2024-01-30T09:09:26;9.50;99.90
18611;DHT22;9435;52.122;5.502;2024-01-30T09:11:53;9.50;99.90
18611;DHT22;9435;52.122;5.502;2024-01-30T09:14:22;9.50;99.90
18611;DHT22;9435;52.122;5.502;2024-01-30T09:16:49;9.60;99.90
18611;DHT22;9435;52.122;5.502;2024-01-30T09:19:16;9.60;99.90
18611;DHT22;9435;52.122;5.502;2024-01-30T09:21:43;9.70;99.90
18611;DHT22;9435;52.122;5.502;2024-01-30T09:24:11;9.70;99.90
18611;DHT22;9435;52.122;5.502;2024-01-30T09:26:38;9.70;99.90
18611;DHT22;9435;52.122;5.502;2024-01-30T09:29:05;9.90;99.90
18611;DHT22;9435;52.122;5.502;2024-01-30T09:31:33;10.00;99.90
18611;DHT22;9435;52.122;5.502;2024-01-30T09:34:00;10.10;99.90
18611;DHT22;9435;52.122;5.502;2024-01-30T09:36:27;10.10;99.90
18611;DHT22;9435;52.122;5.502;2024-01-30T09:38:54;10.20;99.90
18611;DHT22;9435;52.122;5.502;2024-01-30T09:41:24;10.20;99.90
18611;DHT22;9435;52.122;5.502;2024-01-30T09:43:51;10.20;99.90
18611;DHT22;9435;52.122;5.502;2024-01-30T09:46:21;10.30;99.90
18611;DHT22;9435;52.122;5.502;2024-01-30T09:48:51;10.40;99.90
18611;DHT22;9435;52.122;5.502;2024-01-30T09:51:19;10.50;99.90
18611;DHT22;9435;52.122;5.502;2024-01-30T09:53:48;10.50;99.90
18611;DHT22;9435;52.122;5.502;2024-01-30T09:56:16;10.50;99.90
18611;DHT22;9435;52.122;5.502;2024-01-30T09:58:43;10.60;99.90
18611;DHT22;9435;52.122;5.502;2024-01-30T10:01:10;10.70;99.90
18611;DHT22;9435;52.122;5.502;2024-01-30T10:03:38;10.70;99.90
18611;DHT22;9435;52.122;5.502;2024-01-30T10:06:07;10.70;99.90
18611;DHT22;9435;52.122;5.502;2024-01-30T10:08:35;10.80;99.90
18611;DHT22;9435;52.122;5.502;2024-01-30T10:11:02;10.80;99.90
18611;DHT22;9435;52.122;5.502;2024-01-30T10:13:29;10.80;99.90
18611;DHT22;9435;52.122;5.502;2024-01-30T10:15:56;10.90;99.90
18611;DHT22;9435;52.122;5.502;2024-01-30T10:18:23;10.80;99.90
18611;DHT22;9435;52.122;5.502;2024-01-30T10:20:51;10.80;99.90
18611;DHT22;9435;52.122;5.502;2024-01-30T10:23:20;10.90;99.90
18611;DHT22;9435;52.122;5.502;2024-01-30T10:25:47;10.90;99.90
18611;DHT22;9435;52.122;5.502;2024-01-30T10:28:14;10.90;99.90
18611;DHT22;9435;52.122;5.502;2024-01-30T10:30:41;11.00;99.90
18611;DHT22;9435;52.122;5.502;2024-01-30T10:33:08;11.00;99.90
18611;DHT22;9435;52.122;5.502;2024-01-30T10:35:36;11.00;99.90
18611;DHT22;9435;52.122;5.502;2024-01-30T10:38:03;11.10;99.90
18611;DHT22;9435;52.122;5.502;2024-01-30T10:40:34;11.20;99.90
18611;DHT22;9435;52.122;5.502;2024-01-30T10:43:04;11.30;99.90
18611;DHT22;9435;52.122;5.502;2024-01-30T10:45:32;11.30;99.90
18611;DHT22;9435;52.122;5.502;2024-01-30T10:48:00;11.30;99.90
18611;DHT22;9435;52.122;5.502;2024-01-30T10:50:31;11.30;99.90
18611;DHT22;9435;52.122;5.502;2024-01-30T10:52:59;11.30;99.90
18611;DHT22;9435;52.122;5.502;2024-01-30T10:55:29;11.30;99.90
18611;DHT22;9435;52.122;5.502;2024-01-30T10:57:57;11.20;99.90
18611;DHT22;9435;52.122;5.502;2024-01-30T11:00:25;11.30;99.90
18611;DHT22;9435;52.122;5.502;2024-01-30T11:02:53;11.30;99.90
18611;DHT22;9435;52.122;5.502;2024-01-30T11:05:27;11.30;99.90
18611;DHT22;9435;52.122;5.502;2024-01-30T11:07:55;11.30;99.90
18611;DHT22;9435;52.122;5.502;2024-01-30T11:10:24;11.30;99.90
18611;DHT22;9435;52.122;5.502;2024-01-30T11:12:52;11.30;99.90
18611;DHT22;9435;52.122;5.502;2024-01-30T11:15:20;11.30;99.90
18611;DHT22;9435;52.122;5.502;2024-01-30T11:17:51;11.30;99.90
18611;DHT22;9435;52.122;5.502;2024-01-30T11:20:20;11.30;99.90
18611;DHT22;9435;52.122;5.502;2024-01-30T11:22:48;11.40;99.90
18611;DHT22;9435;52.122;5.502;2024-01-30T11:25:17;11.40;99.90
18611;DHT22;9435;52.122;5.502;2024-01-30T11:27:45;11.40;99.90
18611;DHT22;9435;52.122;5.502;2024-01-30T11:30:23;11.40;99.90
18611;DHT22;9435;52.122;5.502;2024-01-30T11:33:03;11.40;99.90
18611;DHT22;9435;52.122;5.502;2024-01-30T11:35:32;11.30;99.90
18611;DHT22;9435;52.122;5.502;2024-01-30T11:38:00;11.30;99.90
18611;DHT22;9435;52.122;5.502;2024-01-30T11:40:28;11.20;99.90
18611;DHT22;9435;52.122;5.502;2024-01-30T11:42:56;11.20;99.90
18611;DHT22;9435;52.122;5.502;2024-01-30T11:45:25;11.20;99.90
18611;DHT22;9435;52.122;5.502;2024-01-30T11:47:53;11.10;99.90
18611;DHT22;9435;52.122;5.502;2024-01-30T11:50:20;11.20;99.90
18611;DHT22;9435;52.122;5.502;2024-01-30T11:52:47;11.20;99.90
18611;DHT22;9435;52.122;5.502;2024-01-30T11:55:15;11.20;99.90
18611;DHT22;9435;52.122;5.502;2024-01-30T11:57:43;11.10;99.90
18611;DHT22;9435;52.122;5.502;2024-01-30T12:00:14;11.10;99.90
18611;DHT22;9435;52.122;5.502;2024-01-30T12:02:44;11.10;99.90
18611;DHT22;9435;52.122;5.502;2024-01-30T12:05:15;11.00;99.90
18611;DHT22;9435;52.122;5.502;2024-01-30T12:07:44;11.00;99.90
18611;DHT22;9435;52.122;5.502;2024-01-30T12:10:12;11.00;99.90
18611;DHT22;9435;52.122;5.502;2024-01-30T12:12:41;11.10;99.90
18611;DHT22;9435;52.122;5.502;2024-01-30T12:15:10;11.10;99.90
18611;DHT22;9435;52.122;5.502;2024-01-30T12:17:37;11.10;99.90
18611;DHT22;9435;52.122;5.502;2024-01-30T12:20:07;10.90;99.90
18611;DHT22;9435;52.122;5.502;2024-01-30T12:22:36;10.90;99.90
18611;DHT22;9435;52.122;5.502;2024-01-30T12:25:05;10.70;99.90
18611;DHT22;9435;52.122;5.502;2024-01-30T12:27:32;10.70;99.90
18611;DHT22;9435;52.122;5.502;2024-01-30T12:29:59;10.50;99.90
18611;DHT22;9435;52.122;5.502;2024-01-30T12:32:28;10.50;99.90
18611;DHT22;9435;52.122;5.502;2024-01-30T12:34:55;10.40;99.90
18611;DHT22;9435;52.122;5.502;2024-01-30T12:37:24;10.30;99.90
18611;DHT22;9435;52.122;5.502;2024-01-30T12:39:52;10.20;99.90
18611;DHT22;9435;52.122;5.502;2024-01-30T12:42:20;10.10;99.90
18611;DHT22;9435;52.122;5.502;2024-01-30T12:44:48;10.00;99.90
18611;DHT22;9435;52.122;5.502;2024-01-30T12:47:16;9.90;99.90
18611;DHT22;9435;52.122;5.502;2024-01-30T12:49:43;9.90;99.90
18611;DHT22;9435;52.122;5.502;2024-01-30T12:52:11;9.90;99.90
18611;DHT22;9435;52.122;5.502;2024-01-30T12:54:40;9.80;99.90
18611;DHT22;9435;52.122;5.502;2024-01-30T12:57:07;9.80;99.90
18611;DHT22;9435;52.122;5.502;2024-01-30T12:59:34;9.70;99.90
18611;DHT22;9435;52.122;5.502;2024-01-30T13:02:01;9.80;99.90
18611;DHT22;9435;52.122;5.502;2024-01-30T13:04:29;9.70;99.90
18611;DHT22;9435;52.122;5.502;2024-01-30T13:06:57;9.70;99.90
18611;DHT22;9435;52.122;5.502;2024-01-30T13:09:24;9.60;99.90
18611;DHT22;9435;52.122;5.502;2024-01-30T13:11:53;9.70;99.90
18611;DHT22;9435;52.122;5.502;2024-01-30T13:14:20;9.70;99.90
18611;DHT22;9435;52.122;5.502;2024-01-30T13:16:47;9.70;99.90
18611;DHT22;9435;52.122;5.502;2024-01-30T13:19:14;9.70;99.90
18611;DHT22;9435;52.122;5.502;2024-01-30T13:21:41;9.70;99.90
18611;DHT22;9435;52.122;5.502;2024-01-30T13:24:09;9.70;99.90
18611;DHT22;9435;52.122;5.502;2024-01-30T13:26:36;9.60;99.90
18611;DHT22;9435;52.122;5.502;2024-01-30T13:29:05;9.60;99.90
18611;DHT22;9435;52.122;5.502;2024-01-30T13:31:32;9.60;99.90
18611;DHT22;9435;52.122;5.502;2024-01-30T13:34:00;9.60;99.90
18611;DHT22;9435;52.122;5.502;2024-01-30T13:36:27;9.60;99.90
18611;DHT22;9435;52.122;5.502;2024-01-30T13:38:54;9.60;99.90
18611;DHT22;9435;52.122;5.502;2024-01-30T13:41:22;9.50;99.90
18611;DHT22;9435;52.122;5.502;2024-01-30T13:43:49;9.50;99.90
18611;DHT22;9435;52.122;5.502;2024-01-30T13:46:17;9.50;99.90
18611;DHT22;9435;52.122;5.502;2024-01-30T13:48:45;9.50;99.90
18611;DHT22;9435;52.122;5.502;2024-01-30T13:51:12;9.40;99.90
18611;DHT22;9435;52.122;5.502;2024-01-30T13:53:39;9.30;99.90
18611;DHT22;9435;52.122;5.502;2024-01-30T13:56:06;9.30;99.90
18611;DHT22;9435;52.122;5.502;2024-01-30T13:58:33;9.30;99.90
18611;DHT22;9435;52.122;5.502;2024-01-30T14:01:01;9.30;99.90
18611;DHT22;9435;52.122;5.502;2024-01-30T14:03:30;9.20;99.90
18611;DHT22;9435;52.122;5.502;2024-01-30T14:05:58;9.20;99.90
18611;DHT22;9435;52.122;5.502;2024-01-30T14:08:25;9.20;99.90
18611;DHT22;9435;52.122;5.502;2024-01-30T14:10:53;9.20;99.90
18611;DHT22;9435;52.122;5.502;2024-01-30T14:13:21;9.20;99.90
18611;DHT22;9435;52.122;5.502;2024-01-30T14:15:50;9.20;99.90
18611;DHT22;9435;52.122;5.502;2024-01-30T14:18:18;9.20;99.90
18611;DHT22;9435;52.122;5.502;2024-01-30T14:20:46;9.20;99.90
18611;DHT22;9435;52.122;5.502;2024-01-30T14:23:14;9.10;99.90
18611;DHT22;9435;52.122;5.502;2024-01-30T14:25:41;9.20;99.90
18611;DHT22;9435;52.122;5.502;2024-01-30T14:28:09;9.20;99.90
18611;DHT22;9435;52.122;5.502;2024-01-30T14:30:36;9.20;99.90
18611;DHT22;9435;52.122;5.502;2024-01-30T14:33:03;9.20;99.90
18611;DHT22;9435;52.122;5.502;2024-01-30T14:35:31;9.20;99.90
18611;DHT22;9435;52.122;5.502;2024-01-30T14:38:00;9.20;99.90
18611;DHT22;9435;52.122;5.502;2024-01-30T14:40:30;9.20;99.90
18611;DHT22;9435;52.122;5.502;2024-01-30T14:42:57;9.20;99.90
18611;DHT22;9435;52.122;5.502;2024-01-30T14:45:24;9.20;99.90
18611;DHT22;9435;52.122;5.502;2024-01-30T14:47:51;9.10;99.90
18611;DHT22;9435;52.122;5.502;2024-01-30T14:50:18;9.10;99.90
18611;DHT22;9435;52.122;5.502;2024-01-30T14:52:45;9.00;99.90
18611;DHT22;9435;52.122;5.502;2024-01-30T14:55:14;8.90;99.90
18611;DHT22;9435;52.122;5.502;2024-01-30T14:57:41;8.80;99.90
18611;DHT22;9435;52.122;5.502;2024-01-30T15:00:11;8.80;99.90
18611;DHT22;9435;52.122;5.502;2024-01-30T15:02:39;8.70;99.90
18611;DHT22;9435;52.122;5.502;2024-01-30T15:05:06;8.70;99.90
18611;DHT22;9435;52.122;5.502;2024-01-30T15:07:36;8.70;99.90
18611;DHT22;9435;52.122;5.502;2024-01-30T15:10:03;8.60;99.90
18611;DHT22;9435;52.122;5.502;2024-01-30T15:12:32;8.60;99.90
18611;DHT22;9435;52.122;5.502;2024-01-30T15:14:59;8.60;99.90
18611;DHT22;9435;52.122;5.502;2024-01-30T15:17:26;8.50;99.90
18611;DHT22;9435;52.122;5.502;2024-01-30T15:19:53;8.50;99.90
18611;DHT22;9435;52.122;5.502;2024-01-30T15:22:20;8.50;99.90
18611;DHT22;9435;52.122;5.502;2024-01-30T15:24:48;8.50;99.90
18611;DHT22;9435;52.122;5.502;2024-01-30T15:27:15;8.50;99.90
18611;DHT22;9435;52.122;5.502;2024-01-30T15:29:43;8.50;99.90
18611;DHT22;9435;52.122;5.502;2024-01-30T15:32:11;8.50;99.90
18611;DHT22;9435;52.122;5.502;2024-01-30T15:34:38;8.40;99.90
18611;DHT22;9435;52.122;5.502;2024-01-30T15:37:05;8.40;99.90
18611;DHT22;9435;52.122;5.502;2024-01-30T15:39:32;8.40;99.90
18611;DHT22;9435;52.122;5.502;2024-01-30T15:41:59;8.40;99.90
18611;DHT22;9435;52.122;5.502;2024-01-30T15:44:26;8.50;99.90
18611;DHT22;9435;52.122;5.502;2024-01-30T15:46:54;8.40;99.90
18611;DHT22;9435;52.122;5.502;2024-01-30T15:49:22;8.40;99.90
18611;DHT22;9435;52.122;5.502;2024-01-30T15:51:49;8.40;99.90
18611;DHT22;9435;52.122;5.502;2024-01-30T15:54:16;8.40;99.90
18611;DHT22;9435;52.122;5.502;2024-01-30T15:56:44;8.40;99.90
18611;DHT22;9435;52.122;5.502;2024-01-30T15:59:11;8.40;99.90
18611;DHT22;9435;52.122;5.502;2024-01-30T16:01:38;8.40;99.90